Main page
METAR-TAF:

METAR-TAF

Airports :

London-Gatwick, England

Gatwick Airport

latitude: 51-09N, longitude: 000-11W, elevation: 62 m

Current weather observation

The report was made 26 minutes ago, at 06:50 UTC
Wind 8 kt from the West/Southwest
Temperature 14°C
Humidity 88%
Pressure 1016 hPa
Visibility 10 km or more
Few clouds at a height of 1600 ft

METAR: EGKK 190650Z 25008KT 9999 FEW016 14/12 Q1016

Time: 08:16 (07:16 UTC)

Forecast

The report was made 2 hours and 25 minutes ago, at 04:51 UTC
Forecast valid from 19 at 06 UTC to 20 at 12 UTC
Wind 12 kt from the West/Southwest
Visibility 10 km or more
Scattered clouds at a height of 3500 ft
Probability 30% :
Temporary
from 19 at 11 UTC to 19 at 19 UTC
Wind 15 kt from the West with gusts up to 25 kt

TAF: EGKK 190451Z 1906/2012 25012KT 9999 SCT035 PROB30 TEMPO 1911/1919 27015G25KT

Weather observations and forecasts of more than 4000 airports (METAR and TAF reports).

The available stations are represented by yellow and red dots on the map.

Hover mouse over dot to see the name of the station.

Then click to see weather observations and forecasts.

To change the map : click on the green buttons with a black cross to zoom in, on the green button with a dash to zoom out, or on the green arrows for adjacent maps.


METAR-TAF: